Time;durP1;ratioP1;P1;durP2;ratioP2;P2;SDS_P1;SDS_P2;PMS_P1;PMS_P2;Temp;Humidity;BMP_temperature;BMP_pressure;BME280_temperature;BME280_humidity;BME280_pressure;Samples;Min_cycle;Max_cycle;Signal;HPM_P1;HPM_P2
2021/09/19 00:01:08;;;;;;;7.03;3.47;;;;;;;7.40;62.10;100130.75;5092131;28;20403;-59
2021/09/19 00:03:35;;;;;;;7.43;3.30;;;;;;;7.39;62.23;100130.75;5092484;28;20036;-60
2021/09/19 00:06:01;;;;;;;6.15;3.15;;;;;;;7.30;62.24;100116.25;5075264;28;20044;-60
2021/09/19 00:08:27;;;;;;;6.13;2.88;;;;;;;7.33;62.17;100129.13;5092429;28;20036;-59
2021/09/19 00:10:54;;;;;;;8.02;3.40;;;;;;;7.31;62.47;100132.63;5093636;28;20036;-58
2021/09/19 00:13:19;;;;;;;6.47;3.20;;;;;;;7.28;62.19;100124.88;5092305;28;20061;-60
2021/09/19 00:15:45;;;;;;;6.03;3.05;;;;;;;7.31;62.19;100132.63;5092136;28;20039;-60
2021/09/19 00:18:11;;;;;;;7.20;3.35;;;;;;;7.28;62.32;100141.25;5093284;28;20044;-59
2021/09/19 00:20:39;;;;;;;7.72;3.28;;;;;;;7.28;62.42;100133.50;5075229;28;20035;-59
2021/09/19 00:23:07;;;;;;;4.32;3.22;;;;;;;7.27;62.59;100130.97;5093225;28;20127;-60
2021/09/19 00:25:33;;;;;;;6.75;3.15;;;;;;;7.21;62.21;100127.59;5093123;28;20083;-60
2021/09/19 00:27:59;;;;;;;5.78;3.30;;;;;;;7.24;62.54;100131.84;5093115;28;20098;-60
2021/09/19 00:30:25;;;;;;;6.13;3.50;;;;;;;7.26;62.38;100142.19;5092893;28;20101;-59
2021/09/19 00:32:52;;;;;;;8.93;3.00;;;;;;;7.26;62.41;100137.00;5093331;28;20130;-60
2021/09/19 00:35:18;;;;;;;5.93;3.10;;;;;;;7.20;62.62;100127.59;5078291;28;20044;-59
2021/09/19 00:37:43;;;;;;;5.60;2.85;;;;;;;7.24;62.56;100137.88;5081164;28;20383;-59
2021/09/19 00:40:10;;;;;;;4.88;3.00;;;;;;;7.27;62.82;100147.34;5092884;28;20513;-59
2021/09/19 00:42:36;;;;;;;7.30;2.97;;;;;;;7.26;62.57;100140.44;5092604;28;20121;-60
2021/09/19 00:45:08;;;;;;;6.30;3.03;;;;;;;7.22;62.85;100147.38;5092608;28;20082;-58
2021/09/19 00:47:34;;;;;;;8.95;3.38;;;;;;;7.18;62.58;100140.53;5091556;28;20048;-60
2021/09/19 00:50:00;;;;;;;7.05;3.00;;;;;;;7.21;62.77;100145.69;5092837;28;20035;-58
2021/09/19 00:52:27;;;;;;;6.95;2.90;;;;;;;7.15;62.84;100138.00;5074744;28;20093;-61
2021/09/19 00:54:53;;;;;;;6.10;3.08;;;;;;;7.21;63.12;100137.94;5090872;28;20043;-58
2021/09/19 00:57:20;;;;;;;5.43;2.78;;;;;;;7.21;62.96;100137.94;5091216;28;20480;-60
2021/09/19 00:59:49;;;;;;;4.70;2.92;;;;;;;7.22;62.63;100146.53;5091291;28;20048;-61
2021/09/19 01:02:14;;;;;;;4.40;2.67;;;;;;;7.12;62.59;100121.66;5091327;28;20039;-60
2021/09/19 01:04:40;;;;;;;5.93;2.90;;;;;;;7.23;62.96;100136.16;5092151;28;20529;-59
2021/09/19 01:07:07;;;;;;;4.00;2.67;;;;;;;7.23;62.30;100130.97;5089498;28;20047;-61
2021/09/19 01:09:34;;;;;;;4.97;2.90;;;;;;;7.24;62.58;100145.63;5092204;28;20062;-61
2021/09/19 01:12:02;;;;;;;4.38;2.70;;;;;;;7.24;62.82;100143.03;5092359;28;20044;-60
2021/09/19 01:14:27;;;;;;;4.63;2.55;;;;;;;7.26;62.50;100140.44;5092236;28;20527;-61
2021/09/19 01:16:57;;;;;;;7.32;2.83;;;;;;;7.27;62.27;100138.72;5092273;28;20040;-59
2021/09/19 01:19:24;;;;;;;5.32;2.83;;;;;;;7.28;62.64;100133.50;5090875;28;20036;-57
2021/09/19 01:21:51;;;;;;;4.35;2.88;;;;;;;7.27;62.43;100130.97;5091892;28;20089;-58
2021/09/19 01:24:17;;;;;;;7.75;2.70;;;;;;;7.24;61.80;100132.69;5090705;28;20044;-60
2021/09/19 01:26:43;;;;;;;4.55;2.55;;;;;;;7.18;61.86;100127.59;5090821;28;20043;-60
2021/09/19 01:29:09;;;;;;;4.47;2.88;;;;;;;7.23;61.86;100127.53;5092035;28;20071;-59
2021/09/19 01:31:35;;;;;;;6.18;2.88;;;;;;;7.27;62.08;100133.53;5090576;28;20130;-60
2021/09/19 01:34:01;;;;;;;4.63;2.72;;;;;;;7.26;62.01;100132.69;5086464;28;20044;-60
2021/09/19 01:36:31;;;;;;;8.40;3.08;;;;;;;7.27;61.53;100124.06;5071666;28;20028;-59
2021/09/19 01:38:56;;;;;;;6.47;2.67;;;;;;;7.26;61.26;100130.09;5088785;28;20585;-59
2021/09/19 01:41:23;;;;;;;5.72;2.78;;;;;;;7.13;61.32;100102.69;5091675;28;20126;-59
2021/09/19 01:43:49;;;;;;;7.07;2.95;;;;;;;7.26;61.12;100121.47;5091801;28;20036;-59
2021/09/19 01:46:15;;;;;;;4.43;2.80;;;;;;;7.24;61.43;100116.31;5091597;28;20535;-59
2021/09/19 01:48:41;;;;;;;5.78;2.85;;;;;;;7.11;61.39;100092.38;5091569;28;20139;-59
2021/09/19 01:51:08;;;;;;;4.97;2.90;;;;;;;7.22;61.39;100116.34;5091509;28;20469;-58
2021/09/19 01:53:35;;;;;;;6.50;2.63;;;;;;;7.25;61.58;100112.88;5091244;28;20479;-59
2021/09/19 01:56:02;;;;;;;6.03;2.67;;;;;;;7.23;61.53;100106.84;5091647;28;20040;-59
2021/09/19 01:58:28;;;;;;;4.65;2.60;;;;;;;7.21;61.14;100106.03;5091674;28;20058;-59
2021/09/19 02:01:01;;;;;;;5.05;2.70;;;;;;;7.22;61.31;100107.75;5091692;28;20507;-58
2021/09/19 02:03:27;;;;;;;7.00;2.97;;;;;;;7.21;61.58;100104.31;5090224;28;20047;-61
2021/09/19 02:05:52;;;;;;;5.13;2.60;;;;;;;7.19;61.71;100102.59;5089959;28;20052;-60
2021/09/19 02:08:18;;;;;;;6.80;2.60;;;;;;;7.21;61.49;100106.91;5089605;28;20415;-60
2021/09/19 02:10:43;;;;;;;4.88;2.70;;;;;;;7.21;61.56;100093.09;5090892;28;20051;-61
2021/09/19 02:13:09;;;;;;;3.25;2.30;;;;;;;7.09;61.17;100076.03;5089650;28;20572;-60
2021/09/19 02:15:35;;;;;;;6.72;3.10;;;;;;;7.19;61.13;100093.13;5089804;28;20047;-60
2021/09/19 02:18:00;;;;;;;5.05;2.90;;;;;;;7.19;61.36;100093.13;5072852;28;20419;-61
2021/09/19 02:20:26;;;;;;;5.15;2.90;;;;;;;7.18;61.46;100093.13;5091191;28;20068;-59
2021/09/19 02:22:52;;;;;;;4.50;2.50;;;;;;;7.15;61.90;100083.72;5106625;28;20522;-59
2021/09/19 02:25:18;;;;;;;5.55;2.33;;;;;;;7.16;61.64;100087.16;5090755;28;20082;-58
2021/09/19 02:27:43;;;;;;;3.95;2.65;;;;;;;7.13;61.66;100088.03;5089813;28;20043;-60
2021/09/19 02:30:12;;;;;;;5.18;2.78;;;;;;;7.11;61.85;100088.94;5089779;28;20044;-59
2021/09/19 02:32:38;;;;;;;5.22;2.97;;;;;;;7.08;61.67;100074.31;5072607;28;20051;-59
2021/09/19 02:35:05;;;;;;;7.28;2.58;;;;;;;7.05;61.99;100092.47;5076843;28;20041;-60
2021/09/19 02:37:31;;;;;;;6.80;3.67;;;;;;;7.02;61.85;100076.97;5082631;28;20036;-60
2021/09/19 02:39:57;;;;;;;6.15;3.22;;;;;;;7.02;62.22;100082.16;5070654;28;20182;-60
2021/09/19 02:42:22;;;;;;;5.15;2.67;;;;;;;7.02;61.93;100073.53;5070330;28;20037;-60
2021/09/19 02:44:48;;;;;;;5.80;2.60;;;;;;;6.99;62.18;100087.38;5052347;28;20537;-61
2021/09/19 02:47:14;;;;;;;4.07;2.75;;;;;;;7.01;62.34;100079.59;5069122;28;20036;-60
2021/09/19 02:49:40;;;;;;;6.63;2.97;;;;;;;6.90;62.11;100071.13;5069044;28;20047;-58
2021/09/19 02:52:05;;;;;;;4.80;2.70;;;;;;;6.97;62.14;100080.50;5070604;28;20515;-59
2021/09/19 02:54:31;;;;;;;5.07;3.03;;;;;;;6.92;62.67;100083.16;5072400;28;20047;-59
2021/09/19 02:56:57;;;;;;;5.20;2.80;;;;;;;6.93;62.68;100084.88;5072334;28;20039;-59
2021/09/19 02:59:22;;;;;;;6.60;2.92;;;;;;;6.92;62.60;100079.72;5090383;28;20121;-58
2021/09/19 03:01:48;;;;;;;5.78;2.72;;;;;;;6.89;62.27;100080.63;5090513;28;20495;-59
2021/09/19 03:04:14;;;;;;;7.28;3.00;;;;;;;6.74;62.52;100057.56;5089059;28;20078;-59
2021/09/19 03:06:40;;;;;;;5.53;2.90;;;;;;;6.89;62.81;100087.50;5090408;28;20055;-59
2021/09/19 03:09:06;;;;;;;8.90;2.80;;;;;;;6.89;62.84;100093.53;5072017;28;20132;-61
2021/09/19 03:11:31;;;;;;;4.65;3.10;;;;;;;6.87;62.61;100081.50;5090407;28;20040;-59
2021/09/19 03:13:57;;;;;;;6.57;2.80;;;;;;;6.83;62.81;100080.69;5089127;28;20451;-61
2021/09/19 03:16:23;;;;;;;4.03;2.60;;;;;;;6.78;63.02;100078.16;5090209;28;20043;-59
2021/09/19 03:18:49;;;;;;;8.07;2.72;;;;;;;6.80;62.51;100083.31;5089762;28;20089;-59
2021/09/19 03:21:15;;;;;;;3.92;2.78;;;;;;;6.81;62.69;100085.88;5072116;28;20048;-60
2021/09/19 03:23:41;;;;;;;5.03;3.33;;;;;;;6.80;62.64;100089.31;5090043;28;20054;-59
2021/09/19 03:26:06;;;;;;;5.82;3.35;;;;;;;6.84;62.71;100090.16;5088743;28;20040;-59
2021/09/19 03:28:33;;;;;;;7.10;3.25;;;;;;;6.80;63.12;100083.31;5090060;28;20127;-59
2021/09/19 03:30:59;;;;;;;5.78;3.55;;;;;;;6.74;62.76;100075.66;5089886;28;20511;-59
2021/09/19 03:33:25;;;;;;;5.50;3.10;;;;;;;6.83;62.58;100083.28;5089974;28;20044;-59
2021/09/19 03:35:51;;;;;;;5.30;3.60;;;;;;;6.78;62.65;100075.59;5084940;28;20051;-59
2021/09/19 03:38:17;;;;;;;4.88;3.20;;;;;;;6.78;62.59;100062.66;5090170;28;20434;-60
2021/09/19 03:40:43;;;;;;;5.85;3.08;;;;;;;6.87;62.47;100079.78;5088562;28;20595;-60
2021/09/19 03:43:09;;;;;;;8.40;3.50;;;;;;;6.89;62.48;100083.19;5088853;28;20097;-59
2021/09/19 03:45:35;;;;;;;7.20;3.20;;;;;;;6.90;62.47;100081.47;5090001;28;20048;-60
2021/09/19 03:48:08;;;;;;;4.85;3.10;;;;;;;6.93;62.84;100090.03;5089941;28;20044;-60
2021/09/19 03:50:34;;;;;;;6.45;3.10;;;;;;;6.93;62.48;100081.41;5090015;28;20043;-60
2021/09/19 03:53:00;;;;;;;4.97;3.22;;;;;;;6.84;62.38;100076.38;5089858;28;20048;-59
2021/09/19 03:55:26;;;;;;;6.85;3.40;;;;;;;6.94;62.39;100083.13;5088563;28;20043;-59
2021/09/19 03:57:52;;;;;;;9.30;3.38;;;;;;;6.96;62.62;100087.41;5089584;28;20048;-59
2021/09/19 04:00:18;;;;;;;6.72;3.40;;;;;;;6.95;62.64;100090.03;5088135;28;20047;-59
2021/09/19 04:02:44;;;;;;;10.98;3.40;;;;;;;6.99;62.35;100089.09;5076222;28;20040;-60
2021/09/19 04:05:10;;;;;;;5.85;3.50;;;;;;;7.02;62.09;100089.03;5068101;28;20048;-59
2021/09/19 04:07:37;;;;;;;7.57;3.10;;;;;;;7.03;62.65;100094.19;5077241;28;20043;-61
2021/09/19 04:10:03;;;;;;;11.27;3.95;;;;;;;6.92;62.15;100067.63;5068642;28;20037;-60
2021/09/19 04:12:29;;;;;;;6.30;3.22;;;;;;;7.11;62.38;100078.59;5082793;28;20253;-50
2021/09/19 04:14:55;;;;;;;5.28;3.70;;;;;;;7.11;62.32;100094.97;5092289;28;20126;-59
2021/09/19 04:17:20;;;;;;;35.55;5.30;;;;;;;7.11;62.34;100094.97;5096920;28;20044;-60
2021/09/19 04:19:46;;;;;;;7.72;3.22;;;;;;;7.15;62.21;100098.34;5084898;28;20047;-59
2021/09/19 04:22:12;;;;;;;7.55;3.33;;;;;;;7.16;62.07;100093.19;5077802;28;20469;-60
2021/09/19 04:24:37;;;;;;;8.57;3.45;;;;;;;7.16;61.83;100089.72;5077889;28;20038;-61
2021/09/19 04:27:03;;;;;;;7.25;3.58;;;;;;;7.17;61.90;100097.44;5092558;28;20044;-61
2021/09/19 04:29:29;;;;;;;5.95;3.33;;;;;;;7.19;61.96;100093.13;5095052;28;20040;-62
2021/09/19 04:31:54;;;;;;;5.68;3.72;;;;;;;7.20;61.78;100100.00;5084286;28;20074;-62
2021/09/19 04:34:20;;;;;;;10.77;3.90;;;;;;;7.24;62.14;100098.22;5081792;28;20073;-60
2021/09/19 04:36:46;;;;;;;5.43;3.33;;;;;;;7.22;61.74;100085.31;5085785;28;20466;-59
2021/09/19 04:39:12;;;;;;;6.65;3.65;;;;;;;7.22;61.46;100082.72;5091112;28;20047;-61
2021/09/19 04:41:38;;;;;;;6.10;3.63;;;;;;;7.33;61.71;100089.50;5088038;28;20560;-59
2021/09/19 04:44:03;;;;;;;6.43;3.38;;;;;;;7.37;61.19;100094.59;5084964;28;20040;-61
2021/09/19 04:46:29;;;;;;;7.53;3.90;;;;;;;7.27;61.24;100077.50;5082593;28;20044;-56
2021/09/19 04:48:56;;;;;;;8.93;3.45;;;;;;;7.39;61.44;100097.13;5080697;28;20036;-61
2021/09/19 04:51:22;;;;;;;7.00;3.70;;;;;;;7.44;61.28;100101.38;5075901;28;20040;-60
2021/09/19 04:53:48;;;;;;;6.35;3.65;;;;;;;7.50;60.71;100095.25;5095741;28;20051;-64
2021/09/19 04:56:14;;;;;;;7.18;3.63;;;;;;;7.51;60.81;100097.81;5095290;28;20097;-56
2021/09/19 04:58:40;;;;;;;6.18;3.55;;;;;;;7.50;60.42;100090.94;5101589;28;20042;-56
2021/09/19 05:01:05;;;;;;;9.82;3.60;;;;;;;7.59;60.67;100095.97;5080239;28;20075;-59
2021/09/19 05:03:31;;;;;;;7.15;3.33;;;;;;;7.61;60.25;100098.53;5084376;28;20066;-59
2021/09/19 05:05:57;;;;;;;6.88;3.80;;;;;;;7.65;60.34;100102.78;5084610;28;20059;-56
2021/09/19 05:08:22;;;;;;;7.97;3.80;;;;;;;7.68;60.24;100094.13;5070843;28;20044;-57
2021/09/19 05:10:49;;;;;;;7.07;3.50;;;;;;;7.73;60.02;100100.94;5062875;28;20046;-57
2021/09/19 05:13:15;;;;;;;6.57;3.45;;;;;;;7.77;60.18;100096.56;5127211;27;20043;-58
2021/09/19 05:15:41;;;;;;;10.52;3.55;;;;;;;7.82;59.75;100103.38;5106600;28;20562;-60
2021/09/19 05:18:07;;;;;;;6.93;3.80;;;;;;;7.84;59.83;100098.16;5091857;28;20542;-60
2021/09/19 05:20:32;;;;;;;5.40;3.40;;;;;;;7.91;60.02;100094.56;5086338;28;20127;-60
2021/09/19 05:22:58;;;;;;;8.80;4.00;;;;;;;7.93;59.67;100096.28;5075752;28;20071;-58
2021/09/19 05:25:24;;;;;;;8.60;3.42;;;;;;;7.96;59.39;100097.94;5074175;28;20047;-58
2021/09/19 05:27:50;;;;;;;6.22;3.85;;;;;;;7.94;59.86;100095.41;5089021;28;20109;-58
2021/09/19 05:30:17;;;;;;;9.93;3.95;;;;;;;7.99;59.50;100098.75;5089429;28;20062;-59
2021/09/19 05:32:43;;;;;;;8.10;4.47;;;;;;;7.90;59.25;100077.38;5091160;28;20046;-60
2021/09/19 05:35:09;;;;;;;6.65;3.42;;;;;;;7.95;59.46;100089.34;5090549;28;20040;-58
2021/09/19 05:37:36;;;;;;;7.00;4.07;;;;;;;7.95;59.63;100088.50;5089556;28;20044;-59
2021/09/19 05:40:04;;;;;;;8.40;4.07;;;;;;;7.94;59.41;100090.22;5070242;28;20054;-59
2021/09/19 05:42:29;;;;;;;6.75;3.63;;;;;;;7.95;59.52;100091.09;5082756;28;20036;-57
2021/09/19 05:44:55;;;;;;;6.45;3.60;;;;;;;7.89;59.18;100076.50;5090103;28;20048;-57
2021/09/19 05:47:21;;;;;;;8.32;3.95;;;;;;;7.97;59.44;100090.16;5089377;28;20036;-57
2021/09/19 05:49:47;;;;;;;10.15;4.63;;;;;;;8.02;59.17;100090.94;5088744;28;20036;-55
2021/09/19 05:52:13;;;;;;;7.15;4.18;;;;;;;8.04;59.04;100089.19;5089755;28;20132;-58
2021/09/19 05:54:39;;;;;;;7.68;4.55;;;;;;;8.05;59.04;100090.03;5056366;28;20062;-58
2021/09/19 05:57:04;;;;;;;7.93;3.88;;;;;;;8.08;58.89;100083.06;5091147;28;20043;-59
2021/09/19 05:59:30;;;;;;;7.57;3.95;;;;;;;8.17;58.87;100079.44;5083585;28;20045;-58
2021/09/19 06:01:56;;;;;;;8.55;3.70;;;;;;;8.25;59.03;100087.94;5069121;28;20127;-57
2021/09/19 06:04:23;;;;;;;9.27;4.38;;;;;;;8.27;58.61;100069.78;5070682;28;20068;-59
2021/09/19 06:06:49;;;;;;;5.60;3.45;;;;;;;8.38;58.41;100091.16;5074210;28;20070;-59
2021/09/19 06:09:15;;;;;;;7.95;3.85;;;;;;;8.31;58.18;100068.88;5090927;28;20047;-59
2021/09/19 06:11:42;;;;;;;9.13;3.75;;;;;;;8.52;58.02;100093.50;5072462;28;20117;-57
2021/09/19 06:14:09;;;;;;;5.60;3.78;;;;;;;8.54;57.87;100096.91;5080653;28;20040;-58
2021/09/19 06:16:35;;;;;;;8.68;3.97;;;;;;;8.62;57.59;100087.25;5069186;28;20093;-59
2021/09/19 06:19:02;;;;;;;5.82;3.45;;;;;;;8.62;57.22;100090.72;5083640;28;20052;-57
2021/09/19 06:21:28;;;;;;;8.65;3.90;;;;;;;8.67;57.44;100083.69;5090923;28;20089;-58
2021/09/19 06:23:54;;;;;;;6.43;3.55;;;;;;;8.68;57.49;100087.16;5085152;28;20044;-57
2021/09/19 06:26:20;;;;;;;7.22;3.85;;;;;;;8.68;57.37;100087.16;5089675;28;20075;-57
2021/09/19 06:28:45;;;;;;;8.68;3.70;;;;;;;8.59;57.56;100063.97;5086886;28;20510;-58
2021/09/19 06:31:11;;;;;;;5.20;3.45;;;;;;;8.65;57.27;100076.81;5086871;28;20044;-58
2021/09/19 06:33:38;;;;;;;8.27;3.80;;;;;;;8.61;57.55;100077.78;5085928;28;20039;-58
2021/09/19 06:36:04;;;;;;;7.65;3.95;;;;;;;8.63;57.60;100076.88;5087478;28;20043;-59
2021/09/19 06:38:30;;;;;;;11.00;4.70;;;;;;;8.57;57.96;100065.78;5086707;28;20044;-56
2021/09/19 06:40:56;;;;;;;7.75;3.83;;;;;;;8.63;57.48;100076.03;5081183;28;20131;-57
2021/09/19 06:43:22;;;;;;;7.90;4.03;;;;;;;8.64;57.84;100073.38;5078075;28;20481;-59
2021/09/19 06:45:48;;;;;;;6.07;3.75;;;;;;;8.65;57.79;100082.00;5079884;28;20035;-59
2021/09/19 06:48:13;;;;;;;9.63;4.47;;;;;;;8.68;57.45;100072.44;5085080;28;20044;-59
2021/09/19 06:50:40;;;;;;;12.70;4.40;;;;;;;8.72;57.59;100070.63;5090387;28;20060;-59
2021/09/19 06:53:06;;;;;;;27.38;5.00;;;;;;;8.75;57.58;100061.06;5080796;28;20131;-59
2021/09/19 06:55:31;;;;;;;7.80;3.80;;;;;;;8.80;57.47;100053.16;5070197;28;20750;-60
2021/09/19 06:57:58;;;;;;;6.60;4.15;;;;;;;8.89;57.40;100056.44;5085632;28;20040;-59
2021/09/19 07:00:25;;;;;;;7.18;3.75;;;;;;;8.99;56.87;100057.09;5084584;28;20033;-60
2021/09/19 07:02:51;;;;;;;7.25;4.15;;;;;;;8.97;57.13;100048.50;5091595;28;20036;-57
2021/09/19 07:05:17;;;;;;;7.82;4.15;;;;;;;9.19;56.41;100060.09;5101611;28;20066;-59
2021/09/19 07:07:43;;;;;;;8.50;3.78;;;;;;;9.32;56.04;100050.28;5088562;28;20130;-59
2021/09/19 07:10:09;;;;;;;14.48;3.85;;;;;;;9.42;55.64;100050.94;5095652;28;20126;-60
2021/09/19 07:12:35;;;;;;;10.43;4.22;;;;;;;9.39;55.51;100030.22;5097564;28;20047;-60
2021/09/19 07:15:01;;;;;;;8.43;3.78;;;;;;;9.59;55.57;100052.22;5104998;28;20415;-57
2021/09/19 07:17:27;;;;;;;8.35;4.00;;;;;;;9.71;55.24;100054.53;5105095;28;20525;-59
2021/09/19 07:19:52;;;;;;;7.50;3.80;;;;;;;9.82;54.83;100050.78;5075973;28;20040;-58
2021/09/19 07:22:18;;;;;;;6.65;3.50;;;;;;;9.83;54.38;100042.97;5088804;28;20044;-56
2021/09/19 07:24:44;;;;;;;7.43;3.65;;;;;;;9.99;54.64;100052.09;5090724;28;20048;-59
2021/09/19 07:27:09;;;;;;;5.22;3.47;;;;;;;10.03;53.58;100052.84;5089680;28;20101;-59
2021/09/19 07:29:35;;;;;;;9.43;3.88;;;;;;;10.08;53.82;100054.44;5071294;28;20035;-59
2021/09/19 07:32:02;;;;;;;5.57;3.13;;;;;;;10.15;53.72;100052.53;5089843;28;20092;-59
2021/09/19 07:34:29;;;;;;;7.05;3.72;;;;;;;10.20;53.81;100055.88;5084713;28;20143;-56
2021/09/19 07:36:56;;;;;;;7.93;3.90;;;;;;;10.30;53.88;100053.88;5086477;28;20157;-59
2021/09/19 07:39:22;;;;;;;5.57;3.40;;;;;;;10.32;53.36;100050.34;5068414;28;20033;-58
2021/09/19 07:41:52;;;;;;;10.15;3.83;;;;;;;10.38;53.29;100055.38;5069028;28;20039;-55
2021/09/19 07:44:21;;;;;;;5.57;3.55;;;;;;;10.50;52.39;100044.63;5076621;28;20436;-58
2021/09/19 07:46:49;;;;;;;5.00;3.50;;;;;;;10.63;53.02;100039.94;5075405;28;20052;-59
2021/09/19 07:49:18;;;;;;;12.35;4.10;;;;;;;10.64;52.66;100044.25;5069245;28;20168;-60
2021/09/19 07:51:44;;;;;;;5.68;3.53;;;;;;;10.63;52.47;100039.94;5069266;28;20097;-58
2021/09/19 07:54:10;;;;;;;7.72;3.60;;;;;;;10.47;52.36;100018.72;5069577;28;20071;-60
2021/09/19 07:56:36;;;;;;;13.40;3.72;;;;;;;10.60;52.23;100038.28;5079027;28;20047;-54
2021/09/19 07:59:02;;;;;;;6.35;3.47;;;;;;;10.64;52.66;100028.63;5089661;28;20036;-57
2021/09/19 08:01:27;;;;;;;10.45;3.60;;;;;;;10.60;52.18;100027.03;5088900;28;20039;-58
2021/09/19 08:03:53;;;;;;;5.50;3.50;;;;;;;10.54;52.37;100017.66;5094732;28;20539;-59
2021/09/19 08:06:22;;;;;;;10.38;3.90;;;;;;;10.55;52.23;100018.50;5096705;28;20144;-59
2021/09/19 08:08:49;;;;;;;5.32;3.20;;;;;;;10.58;52.50;100015.81;5071970;28;20082;-58
2021/09/19 08:11:16;;;;;;;5.05;3.10;;;;;;;10.53;52.09;100015.09;5078490;28;20040;-68
2021/09/19 08:13:42;;;;;;;7.20;3.30;;;;;;;10.46;52.31;99997.97;5038691;28;20036;-62
2021/09/19 08:16:08;;;;;;;6.57;3.78;;;;;;;10.60;52.61;100012.28;5072650;28;20127;-62
2021/09/19 08:18:33;;;;;;;11.82;3.30;;;;;;;10.56;52.42;100026.28;5087364;28;20404;-52
2021/09/19 08:20:59;;;;;;;6.43;3.50;;;;;;;10.44;52.28;100024.00;5069703;28;20105;-59
2021/09/19 08:23:25;;;;;;;8.02;3.22;;;;;;;10.43;52.26;100019.72;5077883;28;20050;-58
2021/09/19 08:25:51;;;;;;;6.57;3.38;;;;;;;10.44;51.70;100018.81;5090156;28;20043;-60
2021/09/19 08:28:17;;;;;;;8.30;3.25;;;;;;;10.48;52.04;100016.97;5091472;28;20048;-58
2021/09/19 08:30:42;;;;;;;7.70;3.40;;;;;;;10.52;52.07;100016.00;5094832;28;20135;-57
2021/09/19 08:33:10;;;;;;;5.43;2.97;;;;;;;10.55;52.47;100021.09;5095273;28;20484;-59
2021/09/19 08:35:37;;;;;;;9.45;3.30;;;;;;;10.50;52.32;100015.19;5091897;28;20112;-61
2021/09/19 08:38:03;;;;;;;6.30;3.42;;;;;;;10.49;51.89;100021.28;5088237;28;20051;-62
2021/09/19 08:40:28;;;;;;;7.45;2.58;;;;;;;10.45;51.66;100022.28;5095275;28;20032;-60
2021/09/19 08:42:55;;;;;;;5.88;3.42;;;;;;;10.43;51.63;100024.06;5085955;28;20047;-59
2021/09/19 08:45:22;;;;;;;5.25;3.05;;;;;;;10.49;51.64;100023.88;5072608;28;20523;-63
2021/09/19 08:47:50;;;;;;;11.65;3.30;;;;;;;10.42;51.15;100005.00;5054270;28;20496;-61
2021/09/19 08:50:16;;;;;;;7.43;3.35;;;;;;;10.63;51.54;100024.31;5071709;28;20209;-60
2021/09/19 08:52:42;;;;;;;5.50;2.97;;;;;;;10.71;51.58;100027.56;5072016;28;20166;-62
2021/09/19 08:55:09;;;;;;;5.07;3.30;;;;;;;10.79;51.06;100024.72;5072028;28;20048;-61
2021/09/19 08:57:35;;;;;;;7.15;2.90;;;;;;;10.86;51.27;100028.84;5067535;28;20032;-61
2021/09/19 09:00:09;;;;;;;5.93;2.60;;;;;;;10.97;50.62;100021.59;5086923;28;20483;-62
2021/09/19 09:02:55;;;;;;;5.35;2.80;;;;;;;11.13;50.42;100028.03;5070743;28;20396;-59
2021/09/19 09:05:35;;;;;;;8.50;3.10;;;;;;;11.20;49.56;100021.72;5090563;28;20044;-61
2021/09/19 09:08:00;;;;;;;;;;;;;;;11.25;49.51;100022.41;5088770;28;20047;-62
2021/09/19 09:10:43;;;;;;;5.50;2.95;;;;;;;11.34;49.65;100023.91;5081612;28;19920;-59
2021/09/19 09:13:13;;;;;;;6.05;2.60;;;;;;;11.39;49.51;100025.44;5070837;28;20047;-61
2021/09/19 09:15:44;;;;;;;14.30;2.70;;;;;;;11.52;48.88;100025.03;5070763;28;20036;-57
2021/09/19 09:18:28;;;;;;;13.55;3.00;;;;;;;11.60;49.00;100028.25;5084319;28;20165;-59
2021/09/19 09:20:59;;;;;;;13.15;3.15;;;;;;;11.71;48.56;100024.41;5079324;28;20127;-60
2021/09/19 09:23:41;;;;;;;4.72;3.00;;;;;;;11.76;48.31;100025.13;5091392;28;20075;-58
2021/09/19 09:26:34;;;;;;;5.78;2.85;;;;;;;11.76;48.42;100027.72;5089986;28;20036;-55
2021/09/19 09:29:07;;;;;;;6.78;3.40;;;;;;;11.71;48.41;100032.22;5089211;28;20063;-60
2021/09/19 09:31:40;;;;;;;5.15;2.70;;;;;;;11.72;48.41;100033.06;5090892;28;20043;-57
2021/09/19 09:34:10;;;;;;;7.72;2.50;;;;;;;11.60;48.58;100021.28;5097143;28;20040;-57
2021/09/19 09:36:52;;;;;;;4.72;2.97;;;;;;;11.50;48.65;100030.31;5087005;28;20491;-57
2021/09/19 09:39:29;;;;;;;7.10;2.88;;;;;;;11.46;48.43;100023.50;5091145;28;20051;-58
2021/09/19 09:42:03;;;;;;;3.75;2.70;;;;;;;11.43;48.55;100021.00;5089331;28;20039;-56
2021/09/19 09:44:32;;;;;;;5.63;2.55;;;;;;;11.39;48.90;100024.59;5084314;28;20055;-56
2021/09/19 09:46:59;;;;;;;5.25;3.00;;;;;;;11.36;48.46;100025.53;5086318;28;20075;-59
2021/09/19 09:49:47;;;;;;;7.90;2.65;;;;;;;11.35;49.07;100025.59;5086910;28;20097;-59
2021/09/19 09:52:27;;;;;;;7.05;2.70;;;;;;;11.34;48.93;100021.28;5087905;28;20127;-57
2021/09/19 09:55:13;;;;;;;7.47;3.00;;;;;;;11.30;48.64;100015.34;5087811;28;20404;-60
2021/09/19 09:58:08;;;;;;;6.82;3.10;;;;;;;11.21;49.13;100023.41;5087868;28;20437;-57
2021/09/19 10:00:34;;;;;;;9.07;2.67;;;;;;;11.20;48.70;100020.88;5088811;28;20040;-57
2021/09/19 10:03:00;;;;;;;4.95;3.15;;;;;;;11.13;49.01;100016.75;5086298;28;20054;-56
2021/09/19 10:05:27;;;;;;;5.28;2.72;;;;;;;11.11;49.02;100014.19;5086546;28;20052;-55
2021/09/19 10:07:53;;;;;;;9.55;3.00;;;;;;;10.97;49.01;100018.97;5085759;28;20086;-56
2021/09/19 10:10:21;;;;;;;5.47;3.05;;;;;;;10.92;49.07;100019.13;5079585;28;20601;-60
2021/09/19 10:12:47;;;;;;;4.95;2.92;;;;;;;10.84;49.37;100013.28;5086637;28;20075;-57
2021/09/19 10:15:14;;;;;;;4.90;3.03;;;;;;;10.81;49.77;100012.53;5088881;28;20130;-58
2021/09/19 10:17:40;;;;;;;5.80;2.97;;;;;;;10.87;49.43;100017.56;5089218;28;20063;-56
2021/09/19 10:20:20;;;;;;;4.20;2.88;;;;;;;10.83;49.76;100010.75;5085092;28;20071;-53
2021/09/19 10:23:03;;;;;;;6.10;2.92;;;;;;;10.88;49.63;100007.13;5087331;28;20085;-59
2021/09/19 10:25:36;;;;;;;6.90;3.30;;;;;;;10.88;50.17;100003.66;5086817;28;20122;-56
2021/09/19 10:28:25;;;;;;;5.18;3.05;;;;;;;10.87;50.23;99999.34;5071047;28;20055;-58
2021/09/19 10:31:09;;;;;;;9.88;3.10;;;;;;;10.84;50.45;100005.50;5071437;28;20424;-56
2021/09/19 10:33:37;;;;;;;5.72;3.40;;;;;;;10.83;50.22;100001.22;5078897;28;20036;-56
2021/09/19 10:36:21;;;;;;;5.53;2.80;;;;;;;10.78;50.09;99991.84;5069296;28;20562;-55
2021/09/19 10:38:47;;;;;;;9.60;3.33;;;;;;;10.78;49.71;99994.44;5091024;28;20123;-58
2021/09/19 10:41:17;;;;;;;8.05;3.30;;;;;;;10.78;50.05;99987.47;5081453;28;20566;-58
2021/09/19 10:43:52;;;;;;;4.90;3.28;;;;;;;10.79;49.81;99976.16;5051191;28;20093;-56
2021/09/19 10:46:39;;;;;;;11.57;3.47;;;;;;;10.78;49.81;99971.84;5084772;28;20477;-61
2021/09/19 10:49:18;;;;;;;6.70;2.83;;;;;;;10.78;49.79;99978.84;5085105;28;20063;-57
2021/09/19 10:51:59;;;;;;;5.93;3.33;;;;;;;10.79;50.06;99973.56;5092933;27;20044;-57
2021/09/19 10:54:46;;;;;;;7.68;3.38;;;;;;;10.76;50.21;99967.63;5082418;28;20059;-59
2021/09/19 10:57:20;;;;;;;6.13;3.17;;;;;;;10.72;50.26;99968.63;5086885;28;20506;-56
2021/09/19 11:00:07;;;;;;;6.68;3.25;;;;;;;10.72;50.13;99972.06;5078778;28;20160;-59
2021/09/19 11:02:37;;;;;;;6.50;2.97;;;;;;;10.67;50.22;99952.31;5073543;28;20046;-58
2021/09/19 11:05:24;;;;;;;10.43;5.03;;;;;;;10.69;50.45;99948.75;5083537;28;20147;-57
2021/09/19 11:07:50;;;;;;;19.92;9.75;;;;;;;10.73;50.25;99954.72;5082327;28;20044;-57
2021/09/19 11:10:17;;;;;;;7.38;4.03;;;;;;;10.66;50.03;99948.00;5079253;28;20063;-58
2021/09/19 11:12:46;;;;;;;9.38;3.50;;;;;;;10.75;49.87;99973.72;5070729;28;20500;-57
2021/09/19 11:15:17;;;;;;;4.97;3.13;;;;;;;10.80;49.67;99980.47;5078021;28;20060;-57
2021/09/19 11:17:45;;;;;;;5.32;2.78;;;;;;;10.75;49.78;99976.31;5077137;28;20478;-54
2021/09/19 11:20:13;;;;;;;9.35;3.75;;;;;;;10.76;49.38;99976.28;5068055;28;20115;-58
2021/09/19 11:22:42;;;;;;;7.72;3.10;;;;;;;10.77;49.77;99964.97;5085716;28;20133;-58
2021/09/19 11:25:09;;;;;;;7.70;3.05;;;;;;;10.82;49.80;99970.03;5079802;28;20052;-57
2021/09/19 11:27:37;;;;;;;14.07;3.40;;;;;;;10.85;49.96;99955.19;5064947;28;20602;-58
2021/09/19 11:30:03;;;;;;;6.10;2.95;;;;;;;10.91;50.00;99951.53;5071833;28;20052;-56
2021/09/19 11:32:30;;;;;;;7.38;3.65;;;;;;;10.87;49.40;99942.97;5076688;28;20067;-58
2021/09/19 11:34:57;;;;;;;8.20;2.90;;;;;;;10.87;49.96;99932.59;5070161;28;20064;-56